Latest Weather Observations for Geelong Racecourse

IDV60801

Issued at 8:31 pm EDT Friday 12 February 2016 (issued every 30 minutes, with the page automatically refreshed every 10 minutes)

About weather observations | Map of weather stations | Latest weather observations for VIC | Other Formats
Station Details ID: 087184 Name: GEELONG RACECOURSE Lat: -38.17 Lon: 144.38 Height: 12.9 m
Data from the previous 72 hours. | See also: Recent months at Geelong Racecourse
Date/Time
EDT
Temp
°C
App
Temp
°C
Dew
Point
Rel
Hum
%
Delta-T
°C
Wind Press
QNH
hPa
Press
MSL
hPa
Rain
since 9 am
mm
Dir
 
Spd
km/h
Gust
km/h
Spd
kts
Gust
kts
12/08:30pm 18.9 17.7 15.0 78 2.3 S 15 19 8 10 1012.2 1012.2 0.0
12/08:00pm 19.6 18.3 14.8 74 2.8 SSE 15 20 8 11 1012.2 1012.2 0.0
12/07:30pm 20.0 18.6 14.6 71 3.1 SSE 15 20 8 11 1012.0 1012.0 0.0
12/07:00pm 20.0 18.3 14.6 71 3.2 S 17 24 9 13 1012.1 1012.1 0.0
12/06:30pm 20.9 19.1 14.5 67 3.7 SSE 17 24 9 13 1012.1 1012.1 0.0
12/06:00pm 21.3 19.1 14.5 65 4.0 S 19 24 10 13 1012.3 1012.3 0.0
12/05:30pm 21.7 19.9 14.4 63 4.3 SSE 17 24 9 13 1012.5 1012.5 0.0
12/05:00pm 22.2 20.5 14.6 62 4.5 SSE 17 22 9 12 1012.7 1012.7 0.0
12/04:30pm 22.7 20.8 14.3 59 4.9 S 17 32 9 17 1012.9 1012.9 0.0
12/04:00pm 23.0 21.3 14.6 59 5.0 SSE 17 24 9 13 1013.1 1013.1 0.0
12/03:30pm 22.7 20.8 14.3 59 4.9 SSE 17 26 9 14 1013.4 1013.4 0.0
12/03:00pm 23.7 22.1 14.9 57 5.2 SSE 17 28 9 15 1013.7 1013.7 0.0
12/02:30pm 22.5 21.5 14.6 61 4.7 S 13 22 7 12 1014.3 1014.3 0.0
12/02:00pm 22.6 21.5 14.4 60 4.8 SSE 13 24 7 13 1014.9 1014.9 0.0
12/01:30pm 22.2 20.5 14.6 62 4.5 SSE 17 28 9 15 1015.2 1015.2 0.0
12/01:00pm 23.1 22.3 15.2 61 4.7 SE 13 28 7 15 1015.3 1015.3 0.0
12/12:30pm 21.8 20.5 14.7 64 4.2 SSE 15 20 8 11 1015.5 1015.5 0.0
12/12:00pm 21.5 20.1 14.6 65 4.0 SSE 15 24 8 13 1015.9 1015.9 0.0
12/11:30am 20.6 19.2 14.5 68 3.6 SSE 15 24 8 13 1016.1 1016.1 0.0
12/11:00am 20.9 20.9 14.3 66 3.8 SE 7 15 4 8 1016.2 1016.2 0.0
12/10:30am 20.4 21.0 14.3 68 3.5 SSE 4 9 2 5 1016.6 1016.6 0.0
12/10:00am 19.4 19.5 13.8 70 3.2 NNE 6 11 3 6 1016.7 1016.7 0.0
12/09:30am 19.4 19.3 14.0 71 3.1 ENE 7 11 4 6 1016.8 1016.8 0.0
12/09:00am 19.2 19.5 14.5 74 2.7 E 6 7 3 4 1016.9 1016.9 0.0
12/08:30am 18.7 19.9 15.9 84 1.7 E 4 6 2 3 1016.8 1016.8 0.0
12/08:00am 15.9 17.5 14.8 93 0.6 CALM 0 2 0 1 1016.7 1016.7 0.0
12/07:30am 14.1 15.0 13.0 93 0.6 CALM 0 0 0 0 1016.6 1016.6 0.0
12/07:00am 13.7 14.5 12.6 93 0.6 CALM 0 4 0 2 1016.7 1016.7 0.0
12/06:30am 13.7 14.5 12.6 93 0.6 CALM 0 0 0 0 1016.5 1016.5 0.0
12/06:00am 13.5 13.5 12.4 93 0.6 S 4 6 2 3 1016.4 1016.4 0.0
12/05:30am 13.9 14.0 12.6 92 0.7 SW 4 6 2 3 1016.3 1016.3 0.0
12/05:00am 14.2 14.0 12.9 92 0.7 SSW 6 6 3 3 1016.1 1016.1 0.0
12/04:30am 15.0 15.3 13.5 91 0.8 SSE 4 4 2 2 1016.0 1016.0 0.0
12/04:00am 15.4 15.4 13.6 89 1.0 S 6 7 3 4 1016.4 1016.4 0.0
12/03:30am 15.9 15.9 14.3 90 0.9 SSE 7 9 4 5 1016.5 1016.5 0.0
12/03:00am 15.8 15.9 14.5 92 0.7 SSE 7 9 4 5 1016.7 1016.7 0.0
12/02:30am 15.5 15.7 14.2 92 0.7 SSE 6 6 3 3 1016.9 1016.9 0.0
12/02:00am 15.6 16.6 14.3 92 0.7 SE 2 2 1 1 1017.1 1017.1 0.0
12/01:30am 16.4 17.3 15.1 92 0.8 SE 4 6 2 3 1017.3 1017.3 0.0
12/01:00am 16.0 16.8 14.7 92 0.7 SSE 4 6 2 3 1017.6 1017.6 0.0
12/12:30am 15.8 16.5 14.5 92 0.7 SSE 4 4 2 2 1017.8 1017.8 0.0
12/12:00am 16.4 17.2 14.9 91 0.9 SSE 4 6 2 3 1018.0 1018.0 0.0
 
Date/Time
EDT
Temp
°C
App
Temp
°C
Dew
Point
Rel
Hum
%
Delta-T
°C
Wind Press
QNH
hPa
Press
MSL
hPa
Rain
since 9 am
mm
Dir
 
Spd
km/h
Gust
km/h
Spd
kts
Gust
kts
11/11:30pm 16.9 17.4 14.9 88 1.2 SSE 6 7 3 4 1018.0 1018.0 0.0
11/11:00pm 17.1 17.5 14.7 86 1.4 SSE 6 7 3 4 1018.1 1018.1 0.0
11/10:30pm 17.6 17.8 14.7 83 1.7 SSE 7 11 4 6 1018.1 1018.1 0.0
11/10:00pm 17.9 17.7 14.6 81 1.9 SSE 9 11 5 6 1018.0 1018.0 0.0
11/09:30pm 18.2 17.6 14.5 79 2.1 S 11 17 6 9 1017.7 1017.7 0.0
11/09:00pm 18.2 17.2 14.5 79 2.1 S 13 20 7 11 1017.4 1017.4 0.0
11/08:30pm 18.6 17.1 14.3 76 2.5 S 15 20 8 11 1017.0 1017.0 0.0
11/08:00pm 19.3 17.8 14.1 72 3.0 SSE 15 22 8 12 1016.4 1016.4 0.0
11/07:30pm 20.2 18.0 14.3 69 3.4 SSE 19 24 10 13 1016.3 1016.3 0.0
11/07:00pm 20.7 18.1 14.8 69 3.5 S 22 32 12 17 1016.3 1016.3 0.0
11/06:30pm 21.0 18.7 14.6 67 3.7 SSE 20 28 11 15 1016.2 1016.2 0.0
11/06:00pm 21.3 19.0 14.2 64 4.1 SSE 19 28 10 15 1016.0 1016.0 0.0
11/05:30pm 21.7 19.1 13.9 61 4.5 SSE 20 28 11 15 1016.0 1016.0 0.0
11/05:00pm 22.4 20.0 14.3 60 4.7 SSE 20 30 11 16 1015.8 1015.8 0.0
11/04:30pm 22.8 19.4 13.8 57 5.2 S 24 32 13 17 1016.1 1016.1 0.0
11/04:00pm 22.4 19.4 13.7 58 5.0 S 22 32 12 17 1016.2 1016.2 0.0
11/03:30pm 22.4 19.7 13.5 57 5.1 S 20 30 11 16 1016.3 1016.3 0.0
11/03:00pm 22.6 20.0 13.7 57 5.2 S 20 32 11 17 1016.3 1016.3 0.0
11/02:30pm 22.5 19.5 12.4 52 5.7 S 20 30 11 16 1016.2 1016.2 0.0
11/02:00pm 22.8 19.8 12.7 53 5.8 S 20 30 11 16 1016.4 1016.4 0.0
11/01:30pm 22.5 19.7 12.7 54 5.6 S 19 24 10 13 1016.4 1016.4 0.0
11/01:00pm 22.8 21.3 13.0 54 5.6 SSE 13 20 7 11 1016.5 1016.5 0.0
11/12:30pm 22.6 20.7 13.1 55 5.5 SE 15 22 8 12 1016.8 1016.8 0.0
11/12:00pm 21.8 19.7 12.4 55 5.3 SSE 15 26 8 14 1017.2 1017.2 0.0
11/11:30am 21.0 19.1 12.9 60 4.6 SSE 15 22 8 12 1017.4 1017.4 0.0
11/11:00am 20.4 18.1 13.1 63 4.1 SSE 17 22 9 12 1017.7 1017.7 0.0
11/10:30am 21.2 19.8 14.4 65 4.0 SSE 15 20 8 11 1017.7 1017.7 0.0
11/10:00am 19.7 19.4 14.3 71 3.1 SE 9 15 5 8 1017.8 1017.8 0.0
11/09:30am 19.4 19.5 14.4 73 2.9 SE 7 13 4 7 1017.6 1017.6 0.0
11/09:00am 19.6 19.7 14.4 72 3.0 SSE 7 11 4 6 1017.5 1017.5 0.0
11/08:30am 19.1 19.6 15.0 77 2.4 SE 6 9 3 5 1017.4 1017.4 0.0
11/08:00am 16.4 18.1 15.1 92 0.8 CALM 0 0 0 0 1017.3 1017.3 0.0
11/07:30am 14.9 15.7 13.8 93 0.6 WSW 2 4 1 2 1017.1 1017.1 0.0
11/07:00am 14.7 15.1 13.6 93 0.6 WSW 4 6 2 3 1016.8 1016.8 0.0
11/06:30am 14.7 15.1 13.6 93 0.6 WSW 4 6 2 3 1016.5 1016.5 0.0
11/06:00am 14.1 14.2 12.8 92 0.7 WSW 4 6 2 3 1016.2 1016.2 0.0
11/05:30am 14.5 14.7 13.2 92 0.7 WSW 4 6 2 3 1015.9 1015.9 0.0
11/05:00am 14.8 15.1 13.5 92 0.7 WSW 4 6 2 3 1015.8 1015.8 0.0
11/04:30am 15.5 16.1 14.2 92 0.7 WSW 4 6 2 3 1015.6 1015.6 0.0
11/04:00am 16.0 16.8 14.7 92 0.7 WSW 4 6 2 3 1015.6 1015.6 0.0
11/03:30am 15.3 16.2 14.0 92 0.7 WSW 2 4 1 2 1015.7 1015.7 0.0
11/03:00am 15.0 16.2 13.7 92 0.7 CALM 0 0 0 0 1015.9 1015.9 0.0
11/02:30am 14.4 14.2 13.1 92 0.7 WSW 6 7 3 4 1016.1 1016.1 0.0
11/02:00am 14.8 15.1 13.5 92 0.7 SSW 4 4 2 2 1016.3 1016.3 0.0
11/01:30am 15.1 15.4 13.5 90 0.9 SSW 4 4 2 2 1016.5 1016.5 0.0
11/01:00am 15.7 15.7 13.7 88 1.1 SSW 6 6 3 3 1016.5 1016.5 0.0
11/12:30am 16.3 16.5 14.1 87 1.2 SSW 6 7 3 4 1016.6 1016.6 0.0
11/12:00am 16.6 16.5 13.9 84 1.5 S 7 7 4 4 1016.6 1016.6 0.0
 
Date/Time
EDT
Temp
°C
App
Temp
°C
Dew
Point
Rel
Hum
%
Delta-T
°C
Wind Press
QNH
hPa
Press
MSL
hPa
Rain
since 9 am
mm
Dir
 
Spd
km/h
Gust
km/h
Spd
kts
Gust
kts
10/11:30pm 17.0 16.9 13.9 82 1.8 S 7 9 4 5 1016.8 1016.8 0.0
10/11:00pm 17.1 17.0 13.8 81 1.9 S 7 11 4 6 1016.9 1016.9 0.0
10/10:30pm 17.3 16.7 13.6 79 2.1 S 9 11 5 6 1016.9 1016.9 0.0
10/10:00pm 17.5 16.9 13.6 78 2.2 S 9 13 5 7 1016.7 1016.7 0.0
10/09:30pm 17.8 17.1 13.3 75 2.5 S 9 13 5 7 1016.5 1016.5 0.0
10/09:00pm 18.0 16.9 13.1 73 2.8 S 11 17 6 9 1016.2 1016.2 0.0
10/08:30pm 18.4 16.6 13.3 72 2.9 S 15 24 8 13 1016.0 1016.0 0.0
10/08:00pm 19.1 17.4 13.7 71 3.1 S 15 20 8 11 1015.8 1015.8 0.0
10/07:30pm 19.4 16.8 13.3 68 3.5 S 19 28 10 15 1015.4 1015.4 0.0
10/07:00pm 19.9 17.3 13.1 65 3.9 S 19 26 10 14 1015.2 1015.2 0.0
10/06:30pm 20.2 17.4 13.2 64 4.0 S 20 28 11 15 1014.9 1014.9 0.0
10/06:00pm 20.4 17.8 13.1 63 4.2 S 19 26 10 14 1014.8 1014.8 0.0
10/05:30pm 20.8 17.9 13.0 61 4.4 SSE 20 28 11 15 1014.7 1014.7 0.0
10/05:00pm 21.9 19.8 13.5 59 4.8 SSE 17 22 9 12 1014.5 1014.5 0.0
10/04:30pm 21.5 19.2 12.9 58 4.9 SSE 17 28 9 15 1014.6 1014.6 0.0
10/04:00pm 21.9 19.2 13.0 57 5.1 SSE 19 26 10 14 1014.8 1014.8 0.0
10/03:30pm 22.2 20.1 13.5 57 5.0 SSE 17 28 9 15 1014.9 1014.9 0.0
10/03:00pm 21.3 18.8 13.5 61 4.5 S 19 26 10 14 1015.2 1015.2 0.0
10/02:30pm 22.3 20.2 13.6 58 5.0 SSE 17 26 9 14 1015.2 1015.2 0.0
10/02:00pm 22.7 21.3 13.5 56 5.3 S 13 20 7 11 1015.4 1015.4 0.0
10/01:30pm 21.9 20.4 13.0 57 5.1 SSE 13 24 7 13 1015.4 1015.4 0.0
10/01:00pm 21.7 20.0 13.6 60 4.7 SSE 15 24 8 13 1015.8 1015.8 0.0
10/12:30pm 21.9 20.5 13.5 59 4.8 S 13 22 7 12 1016.1 1016.1 0.0
10/12:00pm 22.0 21.2 13.9 60 4.7 S 11 24 6 13 1016.3 1016.3 0.0
10/11:30am 21.3 20.7 14.5 65 4.0 S 11 17 6 9 1016.4 1016.4 0.0
10/11:00am 21.3 21.6 14.5 65 4.0 SE 6 13 3 7 1016.4 1016.4 0.0
10/10:30am 20.4 20.6 14.1 67 3.6 W 6 7 3 4 1016.5 1016.5 0.0
10/10:00am 20.9 21.1 14.1 65 3.9 ENE 6 9 3 5 1016.4 1016.4 0.0
10/09:30am 19.2 20.4 14.9 76 2.5 W 2 4 1 2 1016.5 1016.5 0.0
10/09:00am 18.6 19.5 15.1 80 2.0 W 4 6 2 3 1016.4 1016.4 0.0
10/08:30am 18.1 19.0 15.2 83 1.7 SW 4 7 2 4 1016.3 1016.3 0.0
10/08:00am 17.7 18.3 15.3 86 1.4 WSW 6 9 3 5 1016.1 1016.1 0.0
10/07:30am 17.4 18.0 15.4 88 1.2 WSW 6 6 3 3 1015.8 1015.8 0.0
10/07:00am 17.4 18.1 15.6 89 1.1 SSW 6 9 3 5 1015.7 1015.7 0.0
10/06:30am 17.1 18.3 15.8 92 0.8 SSW 4 6 2 3 1015.4 1015.4 0.0
10/06:00am 16.7 18.1 15.4 92 0.8 WSW 2 2 1 1 1015.2 1015.2 0.0
10/05:30am 16.3 17.2 15.2 93 0.6 WSW 4 4 2 2 1015.1 1015.1 0.0
10/05:00am 16.4 18.1 15.1 92 0.8 CALM 0 0 0 0 1015.0 1015.0 0.0
10/04:30am 16.7 18.5 15.4 92 0.8 CALM 0 0 0 0 1015.1 1015.1 0.0
10/04:00am 16.7 17.7 15.4 92 0.8 WSW 4 6 2 3 1015.4 1015.4 0.0
10/03:30am 16.7 17.1 15.4 92 0.8 WSW 7 9 4 5 1015.7 1015.7 0.0
10/03:00am 16.6 17.3 15.5 93 0.6 W 6 7 3 4 1015.8 1015.8 0.0
10/02:30am 16.3 17.2 15.2 93 0.6 W 4 6 2 3 1016.0 1016.0 0.0
10/02:00am 15.9 16.7 14.8 93 0.6 WSW 4 6 2 3 1016.3 1016.3 0.0
10/01:30am 16.0 16.8 14.9 93 0.6 SW 4 4 2 2 1016.5 1016.5 0.0
10/01:00am 16.1 16.6 15.0 93 0.6 SSW 6 6 3 3 1016.8 1016.8 0.0
10/12:30am 15.7 16.4 14.4 92 0.7 SSW 4 6 2 3 1017.1 1017.1 0.0
10/12:00am 16.1 16.5 14.8 92 0.7 S 6 7 3 4 1017.3 1017.3 0.0
 
Date/Time
EDT
Temp
°C
App
Temp
°C
Dew
Point
Rel
Hum
%
Delta-T
°C
Wind Press
QNH
hPa
Press
MSL
hPa
Rain
since 9 am
mm
Dir
 
Spd
km/h
Gust
km/h
Spd
kts
Gust
kts
09/11:30pm 16.1 16.5 14.8 92 0.7 S 6 6 3 3 1017.5 1017.5 0.0
09/11:00pm 16.4 16.9 15.1 92 0.8 S 6 7 3 4 1017.7 1017.7 0.0
09/10:30pm 16.8 16.8 15.2 90 0.9 S 9 11 5 6 1017.8 1017.8 0.0
09/10:00pm 17.0 16.5 15.0 88 1.2 S 11 15 6 8 1017.8 1017.8 0.0
09/09:30pm 17.1 16.5 14.7 86 1.4 S 11 15 6 8 1017.8 1017.8 0.0
09/09:00pm 17.5 16.8 14.4 82 1.8 S 11 15 6 8 1017.7 1017.7 0.0

Other Formats:

Comma delimited format used in spreadsheet applications
http://www.bom.gov.au/fwo/IDV60801/IDV60801.94857.axf

JavaScript Object Notation format (JSON) in row-major order
http://www.bom.gov.au/fwo/IDV60801/IDV60801.94857.json